AirNav   Textron
 
 427 users online  

T79 Skyway Manor Airport
Pearland, Texas, USA

GOING TO PEARLAND?


FAA INFORMATION EFFECTIVE 07 DECEMBER 2017

Location

FAA Identifier: T79
Lat/Long: 29-33-20.8420N / 095-19-40.7750W
29-33.347367N / 095-19.679583W
29.5557894 / -95.3279931
(estimated)
Elevation: 55 ft. / 17 m (estimated)
Variation: 06E (1985)
From city: 3 miles W of PEARLAND, TX
Time zone: UTC -6 (UTC -5 during Daylight Saving Time)
Zip code: 77584

Airport Operations

Airport use: Open to the public
Activation date: 02/1971
Control tower: no
ARTCC: HOUSTON CENTER
FSS: MONTGOMERY COUNTY FLIGHT SERVICE STATION
NOTAMs facility: CXO (NOTAM-D service available)
Attendance: IREG
Wind indicator: yes
Segmented circle: no

Airport Communications

CTAF: 122.9
WX ASOS at LVJ (5 nm SE): 118.525 (281-992-1853)
WX ASOS at HOU (6 nm NE): PHONE 713-847-1462
WX AWOS-3 at AXH (8 nm W): 123.625 (281-431-6572)
WX ASOS at SGR (18 nm W): 118.125 (281-242-7605)

Nearby radio navigation aids

VOR radial/distance  VOR name  Freq  Var
HUBr199/6.6HOBBY VOR/DME117.1005E
IAHr173/24.1HUMBLE VORTAC116.6005E
VUHr300/29.6SCHOLES VOR/DME113.0006E
MHFr264/30.3TRINITY VOR/DME113.6007E

 
NDB name  Hdg/Dist  Freq  Var  ID
SANJAC238/15.134705EJPA .--- .--. .-
NIXIN188/26.932605EBVP -... ...- .--.
GALVESTON286/32.720608EGLS --. .-.. ...

Airport Services

Runway Information

Runway 17/35

Dimensions: 2550 x 70 ft. / 777 x 21 m
Surface: turf, in good condition
SOFT WHEN WET.
RUNWAY 17  RUNWAY 35
Traffic pattern: leftleft
Obstructions: 35 ft. pline, marked, 110 ft. from runway, 3:1 slope to clear50 ft. trees, 35 ft. right of centerline
ALSO 35 FT UNMARKED PLINE 100 FT 0B APCH RATIO 2:1.

Airport Ownership and Management from official FAA records

Ownership: Privately-owned
Owner: SKYWAY MANOR
2736 PIPER ROAD
PEARLAND, TX 77584
Phone (281) 997-7122
Manager: BERT WITHERS
2825 PIPER ROAD
PEARLAND, TX 77584
Phone (281) 997-7122
OWNER'S ASSOCIATION CONTACT

Airport Operational Statistics

Aircraft based on the field: 5
Single engine airplanes: 4
Multi engine airplanes: 1
    
Aircraft operations: avg 42/month *
60% transient general aviation
40% local general aviation
* for 12-month period ending 31 December 2016

Additional Remarks

NUMEROUS VIOLATIONS OF PRIM SFC ENTIRE RWY LGTH; BLDGS, FENCES, TREES & BRUSH.
NO TOUCH AND GO LANDINGS
FOR CD CTC HOUSTON APCH AT 281-443-5844 TO CNL IFR CALL 281-443-5888.

Instrument Procedures

There are no published instrument procedures at T79.

Some nearby airports with instrument procedures:

KLVJ - Pearland Regional Airport (5 nm SE)
KHOU - William P Hobby Airport (6 nm NE)
KAXH - Houston Southwest Airport (8 nm W)
KEFD - Ellington Airport (9 nm E)
T41 - La Porte Municipal Airport (15 nm NE)
KSGR - Sugar Land Regional Airport (18 nm W)
 
Loc | Ops | Rwys | IFR | FBO | Links
Com | Nav | Svcs | Stats | Notes


 
Area around T79 (Skyway Manor Airport)
 
Road maps at: MapQuest Bing Google
 
Aerial photo
No photo
 
Sectional chart

 
Airport distance calculator
Flying to Skyway Manor Airport? Find the distance to fly.

From to T79

Sunrise and sunset
Times for 16-Dec-2017
 Local
(UTC-6)
 Zulu
(UTC)
Morning civil twilight06:4412:44
Sunrise07:1013:10
Sunset17:2423:24
Evening civil twilight17:5023:50

Current date and time
Zulu (UTC)  16-Dec-2017 11:40:09
Local (UTC-6)  16-Dec-2017 05:40:09
 
METAR
KLVJ 
5nm SE 
161053Z AUTO 00000KT 10SM FEW065 OVC085 08/07 A3023 RMK AO2 SLP235 T00830072
KHOU 
5nm NE 
161053Z 00000KT 10SM BKN085 09/06 A3021 RMK AO2 SLP236 T00890061
KAXH 
8nm W 
161115Z AUTO 00000KT 10SM OVC080 08/06 A3022 RMK AO2 T00770060
KEFD 
9nm E 
161050Z 00000KT 10SM OVC090 09/06 A3023
KSGR 
17nm W 
161053Z AUTO 00000KT 10SM OVC080 09/06 A3021 RMK AO2 SLP232 T00890061
TAF
KHOU 
5nm NE 
161006Z 1610/1706 00000KT P6SM OVC090 FM161400 12007KT P6SM BKN050 OVC100 FM161800 10010KT P6SM VCSH OVC050 FM162200 07012KT P6SM -SHRA SCT025 OVC050 FM170100 08012KT 4SM TSRA SCT007 OVC015CB FM170500 05010KT P6SM SCT010 OVC020
KEFD 
9nm E 
160400Z 1604/1710 VRB06KT 9999 OVC180 510804 QNH3011INS BECMG 1612/1613 10009KT 9999 BKN060 QNH3008INS BECMG 1704/1705 02010G15KT 9000 -SHRA OVC010 520204 QNH3005INS TX14/1620Z TN07/1611Z
KSGR 
17nm W 
160527Z 1606/1706 VRB03KT P6SM SCT080 OVC150 FM161400 12007KT P6SM BKN050 OVC100 FM161800 10010KT P6SM VCSH OVC050 FM162200 08012KT P6SM -SHRA SCT025 OVC050 FM170100 07012KT 4SM TSRA SCT007 OVC015CB FM170500 05010KT P6SM SCT010 OVC020
NOTAMs
Click for the latest NOTAMs
NOTAMs are issued by the DoD/FAA and will open in a separate window not controlled by AirNav.

 

 
 

Would you like to see your business listed on this page?

 If your business provides an interesting product or service to pilots, flight crews, aircraft, or users of the Skyway Manor Airport, you should consider listing it here.  To start the listing process, click on the button below
 
Add a business
 

Other Pages about Skyway Manor Airport

Update a link
 
Copyright © AirNav, LLC. All rights reserved. Privacy Policy  Contact